createdAt,value
2022-08-16T00:01:45.414Z,1012.5
2022-08-16T00:07:26.095Z,1012.5
2022-08-16T00:12:39.274Z,1012.6
2022-08-16T00:18:30.094Z,1012.4
2022-08-16T00:24:04.633Z,1012.3
2022-08-16T00:29:43.749Z,1012.3
2022-08-16T00:35:15.402Z,1012.2
2022-08-16T00:40:36.974Z,1012.4
2022-08-16T00:46:22.509Z,1012.6
2022-08-16T00:51:44.747Z,1012.6
2022-08-16T00:57:14.225Z,1012.3
2022-08-16T01:03:03.484Z,1012.1
2022-08-16T01:08:36.920Z,1012.5
2022-08-16T01:14:01.506Z,1012.9
2022-08-16T01:19:57.081Z,1012.9
2022-08-16T01:25:17.290Z,1012.9
2022-08-16T01:30:59.027Z,1012.9
2022-08-16T01:36:15.024Z,1012.8
2022-08-16T01:41:51.207Z,1012.6
2022-08-16T01:47:49.177Z,1012.7
2022-08-16T01:53:12.578Z,1012.8
2022-08-16T01:58:34.020Z,1013
2022-08-16T02:04:48.436Z,1013
2022-08-16T02:09:58.985Z,1013.1
2022-08-16T02:15:42.451Z,1013
2022-08-16T02:21:06.379Z,1012.9
2022-08-16T02:26:34.308Z,1012.8
2022-08-16T02:32:02.886Z,1012.9
2022-08-16T02:37:52.159Z,1013
2022-08-16T02:43:16.656Z,1012.9
2022-08-16T02:48:47.405Z,1012.9
2022-08-16T02:54:35.734Z,1013
2022-08-16T03:00:32.260Z,1012.9
2022-08-16T03:05:26.006Z,1012.9
2022-08-16T03:11:22.548Z,1013
2022-08-16T03:16:58.545Z,1012.9
2022-08-16T03:22:18.821Z,1012.8
2022-08-16T03:27:56.341Z,1012.9
2022-08-16T03:33:30.279Z,1012.9
2022-08-16T03:39:20.225Z,1012.9
2022-08-16T03:50:28.623Z,1013
2022-08-16T03:55:57.141Z,1012.9
2022-08-16T04:01:21.385Z,1013
2022-08-16T04:06:49.615Z,1012.9
2022-08-16T04:12:52.750Z,1012.7
2022-08-16T04:18:18.673Z,1012.4
2022-08-16T04:23:28.423Z,1012.5
2022-08-16T04:29:26.649Z,1012.7
2022-08-16T04:34:54.820Z,1012.9
2022-08-16T04:40:20.842Z,1012.7
2022-08-16T04:46:00.087Z,1012.8
2022-08-16T04:51:53.583Z,1012.8
2022-08-16T04:57:02.630Z,1012.8
2022-08-16T05:02:41.214Z,1012.9
2022-08-16T05:08:28.707Z,1012.8
2022-08-16T05:14:06.781Z,1012.8
2022-08-16T05:19:17.296Z,1012.9
2022-08-16T05:30:37.144Z,1012.9
2022-08-16T05:36:20.872Z,1012.9
2022-08-16T05:41:44.930Z,1012.9
2022-08-16T05:47:23.671Z,1012.8
2022-08-16T05:52:45.082Z,1012.8
2022-08-16T05:58:34.296Z,1012.6
2022-08-16T06:03:54.977Z,1012.6
2022-08-16T06:09:43.139Z,1012.4
2022-08-16T06:15:09.803Z,1012.4
2022-08-16T06:20:51.727Z,1012.5
2022-08-16T06:26:34.882Z,1012.5
2022-08-16T06:31:52.525Z,1012.3
2022-08-16T06:37:37.243Z,1012
2022-08-16T06:43:16.807Z,1012.1
2022-08-16T06:48:55.581Z,1012.1
2022-08-16T06:54:20.681Z,1012.1
2022-08-16T06:59:48.692Z,1011.9
2022-08-16T07:05:41.299Z,1011.7
2022-08-16T07:11:45.495Z,1011.7
2022-08-16T07:16:38.084Z,1011.9
2022-08-16T07:22:37.006Z,1011.9
2022-08-16T07:28:00.939Z,1011.6
2022-08-16T07:33:53.070Z,1011.5
2022-08-16T07:39:09.840Z,1011.6
2022-08-16T07:50:55.406Z,1011.3
2022-08-16T07:55:47.974Z,1011.3
2022-08-16T08:01:40.734Z,1011.2
2022-08-16T08:07:13.006Z,1011.4
2022-08-16T08:12:55.019Z,1011.5
2022-08-16T08:18:20.984Z,1011.3
2022-08-16T08:24:12.526Z,1011.4
2022-08-16T08:29:45.424Z,1011.3
2022-08-16T08:35:33.641Z,1011.3
2022-08-16T08:40:57.410Z,1011.3
2022-08-16T08:46:59.945Z,1011.3
2022-08-16T08:52:33.824Z,1011.2
2022-08-16T08:58:06.371Z,1011.1
2022-08-16T09:03:32.460Z,1011
2022-08-16T09:08:57.927Z,1011
2022-08-16T09:14:34.497Z,1011
2022-08-16T09:20:55.145Z,1010.8
2022-08-16T09:26:44.003Z,1010.9
2022-08-16T09:31:41.015Z,1010.9
2022-08-16T09:37:30.136Z,1010.8
2022-08-16T09:42:56.205Z,1010.6
2022-08-16T09:48:44.914Z,1010.6
2022-08-16T09:54:16.651Z,1010.8
2022-08-16T09:59:48.512Z,1010.6
2022-08-16T10:05:29.876Z,1010.5
2022-08-16T10:11:23.849Z,1010.7
2022-08-16T10:16:40.944Z,1010.5
2022-08-16T10:22:38.398Z,1010.4
2022-08-16T10:28:26.431Z,1010.4
2022-08-16T10:33:47.727Z,1010.2
2022-08-16T10:39:40.941Z,1010.1
2022-08-16T10:44:57.150Z,1010
2022-08-16T10:50:34.598Z,1010
2022-08-16T10:56:51.644Z,1010.1
2022-08-16T11:07:52.686Z,1010
2022-08-16T11:19:12.153Z,1010.1
2022-08-16T11:24:40.474Z,1009.8
2022-08-16T11:30:12.278Z,1009.6
2022-08-16T11:35:44.157Z,1009.6
2022-08-16T11:41:37.662Z,1009.6
2022-08-16T11:47:24.442Z,1009.6
2022-08-16T11:52:46.356Z,1009.3
2022-08-16T11:58:28.428Z,1009.2
2022-08-16T12:04:06.893Z,1009.2
2022-08-16T12:09:47.935Z,1009.2
2022-08-16T12:15:36.372Z,1009.2
2022-08-16T12:21:03.989Z,1008.9
2022-08-16T12:26:59.961Z,1009.1
2022-08-16T12:32:38.532Z,1009.1
2022-08-16T12:38:38.507Z,1008.9
2022-08-16T12:43:34.087Z,1008.8
2022-08-16T12:49:20.226Z,1008.9
2022-08-16T12:55:07.508Z,1008.7
2022-08-16T13:00:36.075Z,1008.7
2022-08-16T13:06:38.371Z,1008.5
2022-08-16T13:11:57.191Z,1008.7
2022-08-16T13:17:43.128Z,1008.5
2022-08-16T13:23:18.584Z,1008.6
2022-08-16T13:28:58.668Z,1008.4
2022-08-16T13:40:19.498Z,1008.4
2022-08-16T13:46:12.103Z,1008.2
2022-08-16T13:51:59.098Z,1008.2
2022-08-16T13:57:22.172Z,1008.2
2022-08-16T14:03:00.219Z,1008
2022-08-16T14:08:50.397Z,1007.9
2022-08-16T14:14:39.037Z,1008
2022-08-16T14:20:07.739Z,1007.9
2022-08-16T14:25:40.569Z,1007.7
2022-08-16T14:31:45.890Z,1007.8
2022-08-16T14:37:11.581Z,1007.8
2022-08-16T14:42:54.741Z,1007.5
2022-08-16T14:48:27.050Z,1007.6
2022-08-16T14:54:11.251Z,1007.3
2022-08-16T14:59:41.125Z,1007.2
2022-08-16T15:05:33.504Z,1007.4
2022-08-16T15:11:07.642Z,1007.4
2022-08-16T15:16:50.090Z,1007.3
2022-08-16T15:22:47.537Z,1007
2022-08-16T15:28:00.219Z,1006.9
2022-08-16T15:33:50.939Z,1007.1
2022-08-16T15:39:24.610Z,1007
2022-08-16T15:45:02.247Z,1007
2022-08-16T15:50:43.435Z,1007.1
2022-08-16T15:56:29.093Z,1007
2022-08-16T16:02:09.745Z,1006.9
2022-08-16T16:07:34.352Z,1006.8
2022-08-16T16:13:12.227Z,1006.8
2022-08-16T16:19:01.895Z,1006.6
2022-08-16T16:24:47.134Z,1006.7
2022-08-16T16:30:11.454Z,1006.8
2022-08-16T16:36:02.906Z,1006.7
2022-08-16T16:41:45.528Z,1006.5
2022-08-16T16:47:12.558Z,1006.5
2022-08-16T16:52:46.607Z,1006.4
2022-08-16T16:58:43.296Z,1006.4
2022-08-16T17:04:04.389Z,1006.4
2022-08-16T17:09:40.874Z,1006.5
2022-08-16T17:15:28.911Z,1006.5
2022-08-16T17:21:08.987Z,1006.5
2022-08-16T17:32:33.502Z,1006.6
2022-08-16T17:38:12.845Z,1006.7
2022-08-16T17:39:27.822Z,1006.6
2022-08-16T17:43:31.301Z,1006.7
2022-08-16T17:49:14.477Z,1006.7
2022-08-16T17:54:50.592Z,1006.6
2022-08-16T18:00:54.476Z,1006.8
2022-08-16T18:06:07.397Z,1007
2022-08-16T18:11:57.568Z,1007
2022-08-16T18:17:45.381Z,1007.1
2022-08-16T18:23:07.943Z,1007.3
2022-08-16T18:28:45.318Z,1007.4
2022-08-16T18:34:29.690Z,1007.4
2022-08-16T18:40:07.989Z,1007.5
2022-08-16T18:45:48.753Z,1007.5
2022-08-16T18:51:04.956Z,1007.6
2022-08-16T18:56:58.792Z,1007.8
2022-08-16T19:02:43.615Z,1007.8
2022-08-16T19:07:57.345Z,1007.9
2022-08-16T19:13:39.939Z,1008
2022-08-16T19:19:24.839Z,1008.1
2022-08-16T19:24:49.647Z,1008.7
2022-08-16T19:30:35.283Z,1008.6
2022-08-16T19:35:58.568Z,1008.2
2022-08-16T19:41:50.603Z,1008.4
2022-08-16T19:47:16.160Z,1008.4
2022-08-16T19:52:32.973Z,1008.6
2022-08-16T19:58:34.093Z,1008.6
2022-08-16T20:04:09.129Z,1008.8
2022-08-16T20:09:38.280Z,1008.6
2022-08-16T20:15:24.796Z,1008.6
2022-08-16T20:20:55.413Z,1008.6
2022-08-16T20:26:14.977Z,1009
2022-08-16T20:32:04.282Z,1009.2
2022-08-16T20:37:46.579Z,1009
2022-08-16T20:43:02.991Z,1009
2022-08-16T20:48:39.512Z,1009
2022-08-16T20:54:17.347Z,1009.1
2022-08-16T20:59:50.096Z,1009
2022-08-16T21:05:24.110Z,1008.8
2022-08-16T21:11:13.008Z,1008.9
2022-08-16T21:16:54.667Z,1008.9
2022-08-16T21:22:14.210Z,1009
2022-08-16T21:28:36.767Z,1009.1
2022-08-16T21:33:35.312Z,1009.2
2022-08-16T21:39:15.060Z,1009.2
2022-08-16T21:44:38.790Z,1009.4
2022-08-16T21:50:23.686Z,1009.2
2022-08-16T21:55:53.914Z,1008.9
2022-08-16T22:01:20.929Z,1009
2022-08-16T22:07:00.076Z,1009.3
2022-08-16T22:12:31.897Z,1009.7
2022-08-16T22:18:05.948Z,1009.7
2022-08-16T22:23:44.069Z,1009.8
2022-08-16T22:29:26.911Z,1009.6
2022-08-16T22:35:10.955Z,1009.5
2022-08-16T22:40:22.214Z,1009.6
2022-08-16T22:46:22.631Z,1009.9
2022-08-16T22:51:57.057Z,1010.5
2022-08-16T22:57:08.893Z,1009.8
2022-08-16T23:02:51.826Z,1009.6
2022-08-16T23:08:38.888Z,1009.7
2022-08-16T23:14:04.102Z,1009.6
2022-08-16T23:19:50.826Z,1009.6
2022-08-16T23:25:35.539Z,1009.5
2022-08-16T23:30:59.428Z,1009.6
2022-08-16T23:36:29.978Z,1009.7
2022-08-16T23:42:44.143Z,1009.7
2022-08-16T23:47:48.454Z,1010.4
2022-08-16T23:53:19.132Z,1010.5
2022-08-16T23:59:02.551Z,1009.9
